Latest Weather Observations for Ballina

IDN60801

Issued at 12:32 pm EST Thursday 26 May 2016 (issued every 30 minutes, with the page automatically refreshed every 10 minutes)

About weather observations | Map of weather stations | Latest weather observations for NSW | Other Formats
Station Details ID: 058198 Name: BALLINA AIRPORT AWS Lat: -28.84 Lon: 153.56 Height: 1.3 m
Data from the previous 72 hours. | See also: Recent months at Ballina
Date/Time
EST
Temp
°C
App
Temp
°C
Dew
Point
Rel
Hum
%
Delta-T
°C
Wind Press
QNH
hPa
Press
MSL
hPa
Rain
since 9 am
mm
Dir
 
Spd
km/h
Gust
km/h
Spd
kts
Gust
kts
26/12:30pm 24.6 21.5 11.5 44 7.4 NNE 19 24 10 13 1008.5 1008.5 0.0
26/12:00pm 24.2 20.8 7.8 35 8.7 N 15 20 8 11 1009.5 1009.5 0.0
26/11:30am 25.5 21.7 7.6 32 9.5 NNE 17 24 9 13 1010.4 1010.4 0.0
26/11:00am 24.2 21.5 9.0 38 8.2 N 13 19 7 10 1011.1 1011.1 0.0
26/10:30am 21.8 20.3 10.6 49 6.1 N 9 13 5 7 1011.7 1011.7 0.0
26/10:00am 18.3 18.0 10.2 59 4.3 NNE 2 7 1 4 1012.5 1012.5 0.0
26/09:30am 17.2 16.1 9.9 62 3.8 NNW 6 13 3 7 1013.0 1013.0 0.0
26/09:00am 16.2 15.9 11.4 73 2.6 WSW 4 7 2 4 1013.3 1013.3 0.0
26/08:30am 15.1 15.9 12.4 84 1.5 CALM 0 0 0 0 1013.4 1013.4 0.0
26/08:00am 12.9 13.3 11.3 90 0.8 CALM 0 0 0 0 1013.5 1013.5 0.0
26/07:30am 9.3 7.8 9.0 98 0.1 W 7 9 4 5 1013.4 1013.4 0.0
26/07:00am 6.7 5.5 6.6 99 0.0 NNE 2 9 1 5 1013.2 1013.2 0.0
26/06:30am 6.1 4.4 5.8 98 0.1 ENE 4 7 2 4 1013.7 1013.7 0.0
26/06:18am 4.6 2.2 4.2 97 0.2 E 6 9 3 5 1013.6 1013.6 0.0
26/06:00am 5.1 3.9 4.7 97 0.2 CALM 0 6 0 3 1013.6 1013.6 0.0
26/05:44am 5.6 4.5 5.0 96 0.3 CALM 0 0 0 0 1013.6 1013.6 0.0
26/05:30am 6.1 5.1 5.7 97 0.2 CALM 0 0 0 0 1013.4 1013.4 0.0
26/05:05am 6.9 5.8 6.8 99 0.0 W 2 7 1 4 1013.3 1013.3 0.0
26/05:00am 7.3 5.5 7.0 98 0.1 W 6 7 3 4 1013.4 1013.4 0.0
26/04:30am 6.7 5.9 6.3 97 0.2 CALM 0 0 0 0 1013.3 1013.3 0.0
26/04:27am 6.6 5.7 6.2 97 0.2 CALM 0 0 0 0 1013.4 1013.4 0.0
26/04:00am 6.7 5.8 6.1 96 0.3 CALM 0 0 0 0 1013.5 1013.5 0.0
26/03:30am 6.9 6.0 6.2 95 0.3 CALM 0 0 0 0 1013.9 1013.9 0.0
26/03:00am 7.4 6.6 6.5 94 0.4 CALM 0 0 0 0 1014.1 1014.1 0.0
26/02:30am 9.0 7.3 8.4 96 0.3 NNW 7 7 4 4 1014.3 1014.3 0.0
26/02:00am 7.2 4.6 6.0 92 0.5 NE 9 9 5 5 1014.7 1014.7 0.0
26/01:30am 8.6 6.9 7.7 94 0.4 W 6 7 3 4 1015.1 1015.1 0.0
26/01:00am 8.4 6.4 7.3 93 0.5 WSW 7 9 4 5 1015.3 1015.3 0.0
26/12:30am 8.7 7.1 7.8 94 0.4 N 6 7 3 4 1015.5 1015.5 0.0
26/12:00am 9.1 7.1 7.2 88 0.9 N 7 9 4 5 1015.8 1015.8 0.0
 
Date/Time
EST
Temp
°C
App
Temp
°C
Dew
Point
Rel
Hum
%
Delta-T
°C
Wind Press
QNH
hPa
Press
MSL
hPa
Rain
since 9 am
mm
Dir
 
Spd
km/h
Gust
km/h
Spd
kts
Gust
kts
25/11:30pm 11.0 8.6 7.1 77 1.9 N 9 11 5 6 1015.9 1015.9 0.0
25/11:00pm 9.4 7.7 8.2 92 0.6 N 7 11 4 6 1016.0 1016.0 0.0
25/10:30pm 10.3 10.0 8.7 90 0.8 CALM 0 0 0 0 1016.2 1016.2 0.0
25/10:00pm 11.1 10.9 9.0 87 1.0 CALM 0 0 0 0 1016.1 1016.1 0.0
25/09:30pm 12.9 11.6 11.1 89 0.9 N 9 11 5 6 1016.1 1016.1 0.0
25/09:00pm 10.6 9.0 8.7 88 0.9 N 7 9 4 5 1016.4 1016.4 0.0
25/08:30pm 10.6 8.9 8.4 86 1.1 N 7 9 4 5 1016.2 1016.2 0.0
25/08:00pm 11.4 11.2 9.0 85 1.2 CALM 0 0 0 0 1016.2 1016.2 0.0
25/07:30pm 11.8 10.4 8.8 82 1.5 N 6 7 3 4 1016.1 1016.1 0.0
25/07:00pm 12.1 11.1 8.9 81 1.6 N 4 7 2 4 1016.0 1016.0 0.0
25/06:30pm 13.4 12.0 8.9 74 2.3 N 6 7 3 4 1015.9 1015.9 0.0
25/06:00pm 14.2 13.3 10.8 80 1.8 N 6 9 3 5 1015.6 1015.6 0.0
25/05:30pm 14.7 13.6 9.9 73 2.5 N 6 7 3 4 1015.5 1015.5 0.0
25/05:00pm 16.5 14.9 8.7 60 4.0 NE 7 9 4 5 1015.4 1015.4 0.0
25/04:30pm 19.1 16.9 7.8 48 5.8 NE 9 9 5 5 1015.3 1015.3 0.0
25/04:00pm 20.6 17.9 7.2 42 6.8 E 11 13 6 7 1015.1 1015.1 0.0
25/03:30pm 21.9 19.3 6.2 36 7.9 E 9 13 5 7 1015.3 1015.3 0.0
25/03:00pm 22.6 20.0 6.0 34 8.4 E 9 13 5 7 1015.4 1015.4 0.0
25/02:30pm 22.6 20.1 4.6 31 8.9 SSE 7 11 4 6 1015.4 1015.4 0.0
25/02:00pm 23.1 20.5 6.0 33 8.7 SSE 9 13 5 7 1015.6 1015.6 0.0
25/01:30pm 23.5 21.2 2.9 26 9.9 NW 4 7 2 4 1015.9 1015.9 0.0
25/01:00pm 23.2 19.7 1.5 24 10.1 S 9 15 5 8 1016.1 1016.1 0.0
25/12:30pm 22.9 19.6 2.4 26 9.7 SSW 9 13 5 7 1016.4 1016.4 0.0
25/12:00pm 22.6 20.0 3.2 28 9.3 WSW 6 9 3 5 1016.8 1016.8 0.0
25/11:30am 21.9 18.7 3.1 29 9.0 SSW 9 15 5 8 1017.1 1017.1 0.0
25/11:00am 21.8 18.2 3.0 29 8.9 SW 11 19 6 10 1017.5 1017.5 0.0
25/10:30am 21.6 17.3 0.8 25 9.5 SW 13 17 7 9 1017.8 1017.8 0.0
25/10:00am 20.8 16.9 1.1 27 8.9 SW 11 17 6 9 1017.9 1017.9 0.0
25/09:30am 19.7 15.6 2.1 31 8.1 WSW 13 15 7 8 1018.0 1018.0 0.0
25/09:00am 17.9 13.8 2.2 35 7.1 WSW 13 17 7 9 1018.2 1018.2 0.0
25/08:30am 16.3 13.2 5.6 49 5.1 WSW 11 15 6 8 1018.2 1018.2 0.0
25/08:00am 12.3 11.9 8.2 76 2.0 CALM 0 0 0 0 1017.8 1017.8 0.0
25/07:30am 9.0 8.3 7.1 88 0.9 CALM 0 0 0 0 1017.6 1017.6 0.0
25/07:00am 6.1 4.9 4.4 89 0.7 CALM 0 0 0 0 1017.6 1017.6 0.0
25/06:30am 5.6 4.3 4.2 91 0.6 CALM 0 0 0 0 1017.3 1017.3 0.0
25/06:00am 6.3 5.1 4.8 90 0.6 CALM 0 0 0 0 1017.0 1017.0 0.0
25/05:30am 6.0 3.3 3.8 86 0.9 WNW 7 9 4 5 1016.7 1016.7 0.0
25/05:00am 8.2 5.2 4.0 75 1.8 W 9 11 5 6 1016.5 1016.5 0.0
25/04:30am 7.8 4.0 4.0 77 1.6 WSW 13 15 7 8 1016.4 1016.4 0.0
25/04:00am 7.6 4.5 3.6 76 1.7 WSW 9 11 5 6 1016.3 1016.3 0.0
25/03:30am 6.3 3.8 4.0 85 1.0 SW 6 7 3 4 1016.4 1016.4 0.0
25/03:00am 6.9 4.3 4.4 84 1.1 W 7 9 4 5 1016.1 1016.1 0.0
25/02:30am 6.9 4.4 3.9 81 1.3 W 6 9 3 5 1016.3 1016.3 0.0
25/02:00am 8.1 5.6 5.0 81 1.4 WSW 7 9 4 5 1016.3 1016.3 0.0
25/01:30am 7.7 4.8 4.8 82 1.3 WSW 9 9 5 5 1016.6 1016.6 0.0
25/01:00am 7.9 5.0 4.5 79 1.5 SSW 9 11 5 6 1016.6 1016.6 0.0
25/12:30am 8.1 5.1 6.1 87 0.9 W 11 13 6 7 1016.4 1016.4 0.0
25/12:03am 7.8 7.1 6.9 94 0.4 CALM 0 0 0 0 1016.5 1016.5 0.0
25/12:00am 7.9 7.2 7.0 94 0.4 CALM 0 0 0 0 1016.5 1016.5 0.0
 
Date/Time
EST
Temp
°C
App
Temp
°C
Dew
Point
Rel
Hum
%
Delta-T
°C
Wind Press
QNH
hPa
Press
MSL
hPa
Rain
since 9 am
mm
Dir
 
Spd
km/h
Gust
km/h
Spd
kts
Gust
kts
24/11:45pm 7.9 7.1 6.7 92 0.6 CALM 0 0 0 0 1016.5 1016.5 0.0
24/11:30pm 8.4 7.9 7.8 96 0.3 CALM 0 0 0 0 1016.5 1016.5 0.0
24/11:00pm 7.5 6.7 6.3 92 0.5 CALM 0 0 0 0 1016.5 1016.5 0.0
24/10:30pm 9.5 9.1 8.4 93 0.5 CALM 0 0 0 0 1016.4 1016.4 0.0
24/10:00pm 8.7 7.7 7.5 92 0.6 NNW 2 6 1 3 1016.6 1016.6 0.0
24/09:30pm 9.6 9.2 8.4 92 0.6 CALM 0 0 0 0 1016.5 1016.5 0.0
24/09:00pm 9.2 8.5 7.0 86 1.0 CALM 0 0 0 0 1016.4 1016.4 0.0
24/08:30pm 10.5 9.9 8.9 90 0.8 N 2 6 1 3 1016.5 1016.5 0.0
24/08:00pm 10.6 9.1 8.5 87 1.0 N 6 7 3 4 1016.4 1016.4 0.0
24/07:30pm 11.9 10.5 8.7 81 1.6 NNW 6 9 3 5 1016.3 1016.3 0.0
24/07:00pm 11.4 11.2 9.1 86 1.1 CALM 0 0 0 0 1016.0 1016.0 0.0
24/06:30pm 12.0 11.9 9.4 84 1.3 CALM 0 0 0 0 1016.0 1016.0 0.0
24/06:00pm 13.3 12.6 10.1 81 1.6 NNW 4 7 2 4 1015.9 1015.9 0.0
24/05:30pm 14.6 14.7 10.0 74 2.4 CALM 0 7 0 4 1015.6 1015.6 0.0
24/05:00pm 16.9 16.8 9.6 62 3.8 CALM 0 0 0 0 1015.5 1015.5 0.0
24/04:30pm 18.8 17.2 7.9 49 5.6 ENE 6 7 3 4 1015.4 1015.4 0.0
24/04:00pm 20.8 18.6 6.0 38 7.4 SE 7 11 4 6 1015.3 1015.3 0.0
24/03:30pm 21.0 17.5 5.4 36 7.7 SE 13 17 7 9 1015.6 1015.6 0.0
24/03:00pm 21.5 17.7 5.8 36 7.8 SSE 15 20 8 11 1015.7 1015.7 0.0
24/02:30pm 22.0 18.3 6.3 36 8.0 SSE 15 22 8 12 1015.5 1015.5 0.0
24/02:00pm 21.7 17.6 6.4 37 7.7 S 17 24 9 13 1015.6 1015.6 0.0
24/01:30pm 22.0 18.2 7.4 39 7.5 SSW 17 26 9 14 1015.7 1015.7 0.0
24/01:00pm 21.9 17.4 6.2 36 7.9 SSW 19 26 10 14 1015.8 1015.8 0.0
24/12:30pm 22.2 17.8 6.4 36 8.0 SSW 19 24 10 13 1016.1 1016.1 0.0
24/12:00pm 22.2 17.9 6.8 37 7.9 SSW 19 26 10 14 1016.5 1016.5 0.0
24/11:30am 22.2 18.1 6.0 35 8.2 SW 17 28 9 15 1017.2 1017.2 0.0
24/11:00am 22.2 18.0 5.6 34 8.3 SW 17 28 9 15 1017.7 1017.7 0.0
24/10:30am 21.9 17.1 4.5 32 8.5 SW 19 26 10 14 1018.2 1018.2 0.0
24/10:00am 21.4 16.6 4.9 34 8.1 SW 19 26 10 14 1018.6 1018.6 0.0
24/09:30am 20.9 16.5 4.5 34 8.0 SW 17 26 9 14 1018.7 1018.7 0.0
24/09:00am 20.3 16.0 5.1 37 7.4 SW 17 24 9 13 1018.7 1018.7 0.0
24/08:30am 19.4 15.9 8.7 50 5.6 WSW 17 22 9 12 1018.5 1018.5 0.0
24/08:00am 18.0 15.6 10.1 60 4.2 WSW 13 15 7 8 1018.1 1018.1 0.0
24/07:30am 16.2 14.2 10.3 68 3.1 W 11 11 6 6 1017.9 1017.9 0.0
24/07:00am 14.5 12.8 9.9 74 2.4 W 9 11 5 6 1017.4 1017.4 0.0
24/06:30am 14.5 12.1 9.9 74 2.4 WSW 13 15 7 8 1017.1 1017.1 0.0
24/06:00am 15.3 12.9 9.9 70 2.8 WSW 13 17 7 9 1016.8 1016.8 0.0
24/05:30am 17.2 15.0 10.8 66 3.4 SW 13 17 7 9 1016.4 1016.4 0.0
24/05:00am 18.1 15.3 11.4 65 3.6 SW 17 24 9 13 1016.2 1016.2 0.0
24/04:30am 18.2 15.9 11.7 66 3.6 SW 15 19 8 10 1016.0 1016.0 0.0
24/04:00am 18.0 16.9 12.0 68 3.3 SSW 9 13 5 7 1015.8 1015.8 0.0
24/03:30am 16.6 14.8 12.0 74 2.5 WSW 13 17 7 9 1015.7 1015.7 0.0
24/03:00am 18.2 16.5 12.4 69 3.2 SW 13 17 7 9 1015.6 1015.6 0.0
24/02:30am 15.9 14.8 12.1 78 2.1 SW 9 11 5 6 1015.1 1015.1 0.0
24/02:00am 15.8 15.2 12.4 80 1.9 SW 7 15 4 8 1014.8 1014.8 0.0
24/01:30am 15.8 16.3 12.9 83 1.6 WNW 2 9 1 5 1014.7 1014.7 0.0
24/01:00am 16.2 17.0 12.6 79 2.0 CALM 0 0 0 0 1014.6 1014.6 0.0
24/12:30am 19.9 18.6 12.4 62 4.2 WNW 11 17 6 9 1014.6 1014.6 0.0
24/12:00am 19.3 17.9 12.3 64 3.9 WNW 11 13 6 7 1014.8 1014.8 0.0
 
Date/Time
EST
Temp
°C
App
Temp
°C
Dew
Point
Rel
Hum
%
Delta-T
°C
Wind Press
QNH
hPa
Press
MSL
hPa
Rain
since 9 am
mm
Dir
 
Spd
km/h
Gust
km/h
Spd
kts
Gust
kts
23/11:30pm 20.6 18.7 13.1 62 4.3 WNW 15 22 8 12 1014.8 1014.8 0.0
23/11:00pm 16.5 17.5 14.2 86 1.3 NW 2 9 1 5 1014.9 1014.9 0.0
23/10:30pm 16.5 16.4 13.2 81 1.8 N 6 6 3 3 1014.9 1014.9 0.0
23/10:00pm 18.2 18.7 15.1 82 1.8 N 6 7 3 4 1015.0 1015.0 0.0
23/09:30pm 17.8 18.1 15.1 84 1.6 N 7 9 4 5 1015.0 1015.0 0.0
23/09:00pm 18.5 20.1 15.9 85 1.5 N 2 7 1 4 1015.2 1015.2 0.0
23/08:30pm 19.0 19.3 16.0 83 1.8 N 9 11 5 6 1015.3 1015.3 0.0
23/08:00pm 19.4 20.1 16.2 82 1.9 NNW 7 9 4 5 1015.3 1015.3 0.0
23/07:30pm 20.0 20.1 16.4 80 2.2 N 11 17 6 9 1015.2 1015.2 0.0
23/07:00pm 20.6 20.4 16.8 79 2.3 N 13 17 7 9 1015.0 1015.0 0.0
23/06:30pm 20.7 21.5 17.3 81 2.1 N 9 13 5 7 1014.9 1014.9 0.0
23/06:00pm 21.0 21.1 17.4 80 2.2 N 13 19 7 10 1014.8 1014.8 0.0
23/05:30pm 21.3 21.3 17.1 77 2.6 N 13 19 7 10 1014.6 1014.6 0.0
23/05:00pm 21.8 21.4 16.3 71 3.3 N 13 19 7 10 1014.5 1014.5 0.0
23/04:30pm 23.3 22.9 15.1 60 4.9 N 11 15 6 8 1014.5 1014.5 0.0
23/04:00pm 24.0 23.2 15.0 57 5.4 NNE 13 20 7 11 1014.2 1014.2 0.0
23/03:30pm 24.7 23.2 15.3 56 5.7 NE 17 20 9 11 1014.1 1014.1 0.0
23/03:00pm 25.2 23.3 15.2 54 6.0 NE 19 24 10 13 1014.0 1014.0 0.0
23/02:30pm 26.1 25.3 15.2 51 6.6 N 13 15 7 8 1014.3 1014.3 0.0
23/02:00pm 27.1 25.5 13.8 44 7.9 W 15 20 8 11 1014.5 1014.5 0.0
23/01:30pm 26.8 25.7 14.2 46 7.5 WNW 13 20 7 11 1014.9 1014.9 0.0
23/01:00pm 26.2 26.1 15.0 50 6.7 NNW 9 13 5 7 1015.1 1015.1 0.0

Other Formats:

Comma delimited format used in spreadsheet applications
http://www.bom.gov.au/fwo/IDN60801/IDN60801.94596.axf

JavaScript Object Notation format (JSON) in row-major order
http://www.bom.gov.au/fwo/IDN60801/IDN60801.94596.json